Time;durP1;ratioP1;P1;durP2;ratioP2;P2;SDS_P1;SDS_P2;PMS_P1;PMS_P2;Temp;Humidity;BMP_temperature;BMP_pressure;BME280_temperature;BME280_humidity;BME280_pressure;Samples;Min_cycle;Max_cycle;Signal;HPM_P1;HPM_P2
2022/12/20 00:00:41;;;;;;;;;;;;;;;;;;5065703;28;4920;-61
2022/12/20 00:03:06;;;;;;;;;;;;;;;;;;5065726;28;4405;-63
2022/12/20 00:05:35;;;;;;;;;;;;;;;;;;5057618;28;4590;-62
2022/12/20 00:08:00;;;;;;;;;;;;;;;;;;5058113;28;5087;-63
2022/12/20 00:10:25;;;;;;;;;;;;;;;;;;5060208;28;4516;-63
2022/12/20 00:12:50;;;;;;;;;;;;;;;;;;5063610;28;5134;-62
2022/12/20 00:15:16;;;;;;;;;;;;;;;;;;5061581;28;5058;-62
2022/12/20 00:17:41;;;;;;;;;;;;;;;;;;5064666;28;3691;-62
2022/12/20 00:20:07;;;;;;;;;;;;;;;;;;5063346;28;4550;-61
2022/12/20 00:22:32;;;;;;;;;;;;;;;;;;5061899;28;4901;-62
2022/12/20 00:24:57;;;;;;;;;;;;;;;;;;5064841;28;5356;-61
2022/12/20 00:27:22;;;;;;;;;;;;;;;;;;5055860;28;5217;-61
2022/12/20 00:29:47;;;;;;;;;;;;;;;;;;5062690;28;3522;-61
2022/12/20 00:32:13;;;;;;;;;;;;;;;;;;5058278;28;4704;-61
2022/12/20 00:34:38;;;;;;;;;;;;;;;;;;5065992;28;4729;-61
2022/12/20 00:37:03;;;;;;;;;;;;;;;;;;5065522;28;5891;-62
2022/12/20 00:39:29;;;;;;;;;;;;;;;;;;5061299;28;4869;-61
2022/12/20 00:41:54;;;;;;;;;;;;;;;;;;5064410;28;3469;-61
2022/12/20 00:44:19;;;;;;;;;;;;;;;;;;5060649;28;4978;-61
2022/12/20 00:46:45;;;;;;;;;;;;;;;;;;5060812;28;5135;-61
2022/12/20 00:49:10;;;;;;;;;;;;;;;;;;5061944;28;5090;-62
2022/12/20 00:51:35;;;;;;;;;;;;;;;;;;5058510;28;5131;-61
2022/12/20 00:54:01;;;;;;;;;;;;;;;;;;5062206;28;3773;-62
2022/12/20 00:56:26;;;;;;;;;;;;;;;;;;5061007;28;4945;-61
2022/12/20 00:58:52;;;;;;;;;;;;;;;;;;5061032;28;5058;-62
2022/12/20 01:01:17;;;;;;;;;;;;;;;;;;5062220;28;5027;-62
2022/12/20 01:03:42;;;;;;;;;;;;;;;;;;5059771;28;5002;-62
2022/12/20 01:06:08;;;;;;;;;;;;;;;;;;5068380;28;1135;-62
2022/12/20 01:08:33;;;;;;;;;;;;;;;;;;5057343;28;5221;-62
2022/12/20 01:11:03;;;;;;;;;;;;;;;;;;5061136;28;5274;-62
2022/12/20 01:13:28;;;;;;;;;;;;;;;;;;5061546;28;5294;-62
2022/12/20 01:15:54;;;;;;;;;;;;;;;;;;5060566;28;4499;-62
2022/12/20 01:18:19;;;;;;;;;;;;;;;;;;5059990;28;5254;-62
2022/12/20 01:20:44;;;;;;;;;;;;;;;;;;5057187;28;3591;-62
2022/12/20 01:23:09;;;;;;;;;;;;;;;;;;5061553;28;5176;-62
2022/12/20 01:25:35;;;;;;;;;;;;;;;;;;5059533;28;4671;-62
2022/12/20 01:28:00;;;;;;;;;;;;;;;;;;5064806;28;5203;-62
2022/12/20 01:30:25;;;;;;;;;;;;;;;;;;5063539;28;4562;-62
2022/12/20 01:32:50;;;;;;;;;;;;;;;;;;5064813;28;3468;-62
2022/12/20 01:35:16;;;;;;;;;;;;;;;;;;5061833;28;4880;-62
2022/12/20 01:37:41;;;;;;;;;;;;;;;;;;5065910;28;4966;-62
2022/12/20 01:40:08;;;;;;;;;;;;;;;;;;5063643;28;5009;-62
2022/12/20 01:42:33;;;;;;;;;;;;;;;;;;5063867;28;5089;-62
2022/12/20 01:44:58;;;;;;;;;;;;;;;;;;5068353;28;1239;-62
2022/12/20 01:47:24;;;;;;;;;;;;;;;;;;5061394;28;4493;-62
2022/12/20 01:49:49;;;;;;;;;;;;;;;;;;5063024;28;5142;-62
2022/12/20 01:52:16;;;;;;;;;;;;;;;;;;5059961;28;5039;-62
2022/12/20 01:54:45;;;;;;;;;;;;;;;;;;5052978;28;5113;-62
2022/12/20 01:57:15;;;;;;;;;;;;;;;;;;5057518;28;3729;-62
2022/12/20 01:59:40;;;;;;;;;;;;;;;;;;5064985;28;4389;-62
2022/12/20 02:02:06;;;;;;;;;;;;;;;;;;5054602;28;4971;-62
2022/12/20 02:04:32;;;;;;;;;;;;;;;;;;5058116;28;5306;-62
2022/12/20 02:06:57;;;;;;;;;;;;;;;;;;5057739;28;5070;-62
2022/12/20 02:09:22;;;;;;;;;;;;;;;;;;5053741;28;4913;-62
2022/12/20 02:11:53;;;;;;;;;;;;;;;;;;5058417;28;3559;-63
2022/12/20 02:14:50;;;;;;;;;;;;;;;;;;5057958;28;5075;-62
2022/12/20 02:17:21;;;;;;;;;;;;;;;;;;5029865;28;4617;-62
2022/12/20 02:20:02;;;;;;;;;;;;;;;;;;5062461;28;4993;-62
2022/12/20 02:22:46;;;;;;;;;;;;;;;;;;5058618;28;5001;-62
2022/12/20 02:25:32;;;;;;;;;;;;;;;;;;5049595;28;5008;-62
2022/12/20 02:27:58;;;;;;;;;;;;;;;;;;5055430;28;4529;-62
2022/12/20 02:30:23;;;;;;;;;;;;;;;;;;5052352;28;5332;-62
2022/12/20 02:33:14;;;;;;;;;;;;;;;;;;5055172;28;3466;-62
2022/12/20 02:35:40;;;;;;;;;;;;;;;;;;5063712;28;4692;-62
2022/12/20 02:38:24;;;;;;;;;;;;;;;;;;5059614;28;4607;-62
2022/12/20 02:40:50;;;;;;;;;;;;;;;;;;5059881;28;4669;-62
2022/12/20 02:45:59;;;;;;;;;;;;;;;;;;5057121;28;5079;-63
2022/12/20 02:48:24;;;;;;;;;;;;;;;;;;5052135;28;5314;-62
2022/12/20 02:50:50;;;;;;;;;;;;;;;;;;5055419;28;3573;-62
2022/12/20 02:53:15;;;;;;;;;;;;;;;;;;5054793;28;4814;-62
2022/12/20 02:55:42;;;;;;;;;;;;;;;;;;5061777;28;5271;-63
2022/12/20 02:58:37;;;;;;;;;;;;;;;;;;5043841;28;5091;-63
2022/12/20 03:01:04;;;;;;;;;;;;;;;;;;5049577;28;4485;-62
2022/12/20 03:03:32;;;;;;;;;;;;;;;;;;5048099;28;5088;-63
2022/12/20 03:05:57;;;;;;;;;;;;;;;;;;5052858;28;3498;-62
2022/12/20 03:08:23;;;;;;;;;;;;;;;;;;5051427;28;5957;-62
2022/12/20 03:10:49;;;;;;;;;;;;;;;;;;5062891;28;4685;-62
2022/12/20 03:13:14;;;;;;;;;;;;;;;;;;5064464;28;5235;-62
2022/12/20 03:15:39;;;;;;;;;;;;;;;;;;5058858;28;4955;-62
2022/12/20 03:18:04;;;;;;;;;;;;;;;;;;5065959;28;3487;-62
2022/12/20 03:20:30;;;;;;;;;;;;;;;;;;5055326;28;5032;-62
2022/12/20 03:22:55;;;;;;;;;;;;;;;;;;5062954;28;5005;-61
2022/12/20 03:25:20;;;;;;;;;;;;;;;;;;5069280;28;4693;-61
2022/12/20 03:27:46;;;;;;;;;;;;;;;;;;5069680;28;4544;-62
2022/12/20 03:30:11;;;;;;;;;;;;;;;;;;5073972;28;3244;-62
2022/12/20 03:32:37;;;;;;;;;;;;;;;;;;5074709;28;4769;-62
2022/12/20 03:35:02;;;;;;;;;;;;;;;;;;5075835;28;5070;-62
2022/12/20 03:37:28;;;;;;;;;;;;;;;;;;5044159;28;5081;-62
2022/12/20 03:39:53;;;;;;;;;;;;;;;;;;5052611;28;4810;-62
2022/12/20 03:42:18;;;;;;;;;;;;;;;;;;5074037;28;5238;-62
2022/12/20 03:44:44;;;;;;;;;;;;;;;;;;5072932;28;3502;-62
2022/12/20 03:47:09;;;;;;;;;;;;;;;;;;5054000;28;4910;-61
2022/12/20 03:49:34;;;;;;;;;;;;;;;;;;5072695;28;5045;-61
2022/12/20 03:51:59;;;;;;;;;;;;;;;;;;5054480;28;5159;-62
2022/12/20 03:54:25;;;;;;;;;;;;;;;;;;5061363;28;4497;-62
2022/12/20 03:56:50;;;;;;;;;;;;;;;;;;5060117;28;3482;-61
2022/12/20 03:59:15;;;;;;;;;;;;;;;;;;5047884;28;4900;-62
2022/12/20 04:01:40;;;;;;;;;;;;;;;;;;5062521;28;5079;-62
2022/12/20 04:04:12;;;;;;;;;;;;;;;;;;5065694;28;4952;-61
2022/12/20 04:06:37;;;;;;;;;;;;;;;;;;5061179;28;4678;-62
2022/12/20 04:09:03;;;;;;;;;;;;;;;;;;5060543;28;3510;-62
2022/12/20 04:11:28;;;;;;;;;;;;;;;;;;5065205;28;5193;-62
2022/12/20 04:13:53;;;;;;;;;;;;;;;;;;5058936;28;5093;-62
2022/12/20 04:16:19;;;;;;;;;;;;;;;;;;5061327;28;5048;-61
2022/12/20 04:18:45;;;;;;;;;;;;;;;;;;5059216;28;5536;-61
2022/12/20 04:21:10;;;;;;;;;;;;;;;;;;5059626;28;3502;-61
2022/12/20 04:23:36;;;;;;;;;;;;;;;;;;5066582;28;4391;-62
2022/12/20 04:26:01;;;;;;;;;;;;;;;;;;5062909;28;5154;-61
2022/12/20 04:28:27;;;;;;;;;;;;;;;;;;5064413;28;5100;-62
2022/12/20 04:30:52;;;;;;;;;;;;;;;;;;5053657;28;5032;-61
2022/12/20 04:33:17;;;;;;;;;;;;;;;;;;5055799;28;4551;-62
2022/12/20 04:35:42;;;;;;;;;;;;;;;;;;5061666;28;3357;-61
2022/12/20 04:38:08;;;;;;;;;;;;;;;;;;5060849;28;4672;-61
2022/12/20 04:40:33;;;;;;;;;;;;;;;;;;5060970;28;5289;-62
2022/12/20 04:42:58;;;;;;;;;;;;;;;;;;5057864;28;5181;-62
2022/12/20 04:45:23;;;;;;;;;;;;;;;;;;5058964;28;5067;-61
2022/12/20 04:47:49;;;;;;;;;;;;;;;;;;5061940;28;3493;-62
2022/12/20 04:50:14;;;;;;;;;;;;;;;;;;5060917;28;4589;-61
2022/12/20 04:55:23;;;;;;;;;;;;;;;;;;5059446;28;5182;-62
2022/12/20 04:57:48;;;;;;;;;;;;;;;;;;5055787;28;4934;-61
2022/12/20 05:00:14;;;;;;;;;;;;;;;;;;5063869;28;5320;-61
2022/12/20 05:02:39;;;;;;;;;;;;;;;;;;5052959;28;4398;-62
2022/12/20 05:05:05;;;;;;;;;;;;;;;;;;5056995;28;5404;-62
2022/12/20 05:07:30;;;;;;;;;;;;;;;;;;5058453;28;5065;-62
2022/12/20 05:09:55;;;;;;;;;;;;;;;;;;5059049;28;5082;-61
2022/12/20 05:12:20;;;;;;;;;;;;;;;;;;5041263;28;5119;-62
2022/12/20 05:14:46;;;;;;;;;;;;;;;;;;5063626;28;3560;-62
2022/12/20 05:17:11;;;;;;;;;;;;;;;;;;5058678;28;4605;-62
2022/12/20 05:19:36;;;;;;;;;;;;;;;;;;5060523;28;4680;-62
2022/12/20 05:27:29;;;;;;;;;;;;;;;;;;5062992;28;4591;-62
2022/12/20 05:29:54;;;;;;;;;;;;;;;;;;5065760;28;3541;-62
2022/12/20 05:32:20;;;;;;;;;;;;;;;;;;5064353;28;5056;-62
2022/12/20 05:34:45;;;;;;;;;;;;;;;;;;5055758;28;5034;-61
2022/12/20 05:37:10;;;;;;;;;;;;;;;;;;5065714;28;4905;-61
2022/12/20 05:39:35;;;;;;;;;;;;;;;;;;5062803;28;5898;-62
2022/12/20 05:42:01;;;;;;;;;;;;;;;;;;5064942;28;1135;-62
2022/12/20 05:44:26;;;;;;;;;;;;;;;;;;5058764;28;4976;-61
2022/12/20 05:46:51;;;;;;;;;;;;;;;;;;5059682;28;4516;-61
2022/12/20 05:49:16;;;;;;;;;;;;;;;;;;5060947;28;5257;-62
2022/12/20 05:51:42;;;;;;;;;;;;;;;;;;5063714;28;4650;-62
2022/12/20 05:54:07;;;;;;;;;;;;;;;;;;5062562;28;1428;-62
2022/12/20 05:56:33;;;;;;;;;;;;;;;;;;5070973;28;5231;-63
2022/12/20 05:58:59;;;;;;;;;;;;;;;;;;5068204;28;5020;-63
2022/12/20 06:01:24;;;;;;;;;;;;;;;;;;5063537;28;4575;-62
2022/12/20 06:03:49;;;;;;;;;;;;;;;;;;5069758;28;4544;-62
2022/12/20 06:06:15;;;;;;;;;;;;;;;;;;5060357;28;4487;-62
2022/12/20 06:08:40;;;;;;;;;;;;;;;;;;5069671;28;3629;-63
2022/12/20 06:11:05;;;;;;;;;;;;;;;;;;5060336;28;5167;-63
2022/12/20 06:13:31;;;;;;;;;;;;;;;;;;5059295;28;5136;-62
2022/12/20 06:15:56;;;;;;;;;;;;;;;;;;5063537;28;4967;-62
2022/12/20 06:18:21;;;;;;;;;;;;;;;;;;5068385;28;4894;-62
2022/12/20 06:20:50;;;;;;;;;;;;;;;;;;5068206;28;3606;-62
2022/12/20 06:23:15;;;;;;;;;;;;;;;;;;5060691;28;4502;-62
2022/12/20 06:25:41;;;;;;;;;;;;;;;;;;5071503;28;4906;-62
2022/12/20 06:28:06;;;;;;;;;;;;;;;;;;5046215;28;5386;-62
2022/12/20 06:30:32;;;;;;;;;;;;;;;;;;5061676;28;5075;-63
2022/12/20 06:32:58;;;;;;;;;;;;;;;;;;5077038;28;3582;-62
2022/12/20 06:35:23;;;;;;;;;;;;;;;;;;5064372;28;5134;-63
2022/12/20 06:37:48;;;;;;;;;;;;;;;;;;5063845;28;4487;-63
2022/12/20 06:40:14;;;;;;;;;;;;;;;;;;5048533;28;5022;-62
2022/12/20 06:42:39;;;;;;;;;;;;;;;;;;5066134;28;4675;-62
2022/12/20 06:45:04;;;;;;;;;;;;;;;;;;5071235;28;3658;-62
2022/12/20 06:47:30;;;;;;;;;;;;;;;;;;5070060;28;4739;-62
2022/12/20 06:49:55;;;;;;;;;;;;;;;;;;5056152;28;4995;-62
2022/12/20 06:52:20;;;;;;;;;;;;;;;;;;5041082;28;4483;-62
2022/12/20 06:54:45;;;;;;;;;;;;;;;;;;5032028;28;4711;-62
2022/12/20 06:57:11;;;;;;;;;;;;;;;;;;5064753;28;3460;-61
2022/12/20 06:59:36;;;;;;;;;;;;;;;;;;5068906;28;4968;-62
2022/12/20 07:02:01;;;;;;;;;;;;;;;;;;5070493;28;4699;-62
2022/12/20 07:04:27;;;;;;;;;;;;;;;;;;5068789;28;4499;-62
2022/12/20 07:06:52;;;;;;;;;;;;;;;;;;5062074;28;5096;-63
2022/12/20 07:09:17;;;;;;;;;;;;;;;;;;5054217;28;5084;-63
2022/12/20 07:11:42;;;;;;;;;;;;;;;;;;5052006;28;3649;-63
2022/12/20 07:14:08;;;;;;;;;;;;;;;;;;5075077;28;5089;-62
2022/12/20 07:16:33;;;;;;;;;;;;;;;;;;5061848;28;5011;-63
2022/12/20 07:18:58;;;;;;;;;;;;;;;;;;5062275;28;5065;-62
2022/12/20 07:21:23;;;;;;;;;;;;;;;;;;5051546;28;5084;-62
2022/12/20 07:23:49;;;;;;;;;;;;;;;;;;5071370;28;3519;-62
2022/12/20 07:26:14;;;;;;;;;;;;;;;;;;5061920;28;4889;-65
2022/12/20 07:28:39;;;;;;;;;;;;;;;;;;5064288;28;4902;-61
2022/12/20 07:31:05;;;;;;;;;;;;;;;;;;5069270;28;4996;-61
2022/12/20 07:33:30;;;;;;;;;;;;;;;;;;5047402;28;4527;-60
2022/12/20 07:35:59;;;;;;;;;;;;;;;;;;5081980;28;1080;-61
2022/12/20 07:38:25;;;;;;;;;;;;;;;;;;5073884;28;4660;-59
2022/12/20 07:40:50;;;;;;;;;;;;;;;;;;5073086;28;4875;-61
2022/12/20 07:43:15;;;;;;;;;;;;;;;;;;5049939;28;5285;-60
2022/12/20 07:45:40;;;;;;;;;;;;;;;;;;5067321;28;5017;-61
2022/12/20 07:48:06;;;;;;;;;;;;;;;;;;5061833;28;4210;-62
2022/12/20 07:50:31;;;;;;;;;;;;;;;;;;5065702;28;4454;-61
2022/12/20 07:52:57;;;;;;;;;;;;;;;;;;5047544;28;5151;-62
2022/12/20 07:55:22;;;;;;;;;;;;;;;;;;5058920;28;4918;-61
2022/12/20 07:57:48;;;;;;;;;;;;;;;;;;5054634;28;5028;-62
2022/12/20 08:00:14;;;;;;;;;;;;;;;;;;5059331;28;5360;-61
2022/12/20 08:02:41;;;;;;;;;;;;;;;;;;5052859;28;4428;-60
2022/12/20 08:05:06;;;;;;;;;;;;;;;;;;5051276;28;5271;-61
2022/12/20 08:07:32;;;;;;;;;;;;;;;;;;5058703;28;4731;-61
2022/12/20 08:09:57;;;;;;;;;;;;;;;;;;5060412;28;5207;-61
2022/12/20 08:12:22;;;;;;;;;;;;;;;;;;5059491;28;5054;-62
2022/12/20 08:14:51;;;;;;;;;;;;;;;;;;5057770;28;3615;-61
2022/12/20 08:17:16;;;;;;;;;;;;;;;;;;5059049;28;5039;-62
2022/12/20 08:19:41;;;;;;;;;;;;;;;;;;5058764;28;5275;-61
2022/12/20 08:22:06;;;;;;;;;;;;;;;;;;5054170;28;4711;-61
2022/12/20 08:24:32;;;;;;;;;;;;;;;;;;5058602;28;5110;-62
2022/12/20 08:26:57;;;;;;;;;;;;;;;;;;5058581;28;3569;-62
2022/12/20 08:29:22;;;;;;;;;;;;;;;;;;5059174;28;4462;-64
2022/12/20 08:31:48;;;;;;;;;;;;;;;;;;5057270;28;4486;-62
2022/12/20 08:34:13;;;;;;;;;;;;;;;;;;5057049;28;4876;-61
2022/12/20 08:36:38;;;;;;;;;;;;;;;;;;5047683;28;4490;-63
2022/12/20 08:39:04;;;;;;;;;;;;;;;;;;5054866;28;3600;-63
2022/12/20 08:41:29;;;;;;;;;;;;;;;;;;5061497;28;4641;-64
2022/12/20 08:43:54;;;;;;;;;;;;;;;;;;5062344;28;4958;-64
2022/12/20 08:46:20;;;;;;;;;;;;;;;;;;5056985;28;4871;-62
2022/12/20 08:48:45;;;;;;;;;;;;;;;;;;5054685;28;4643;-62
2022/12/20 08:51:10;;;;;;;;;;;;;;;;;;5054031;28;3498;-62
2022/12/20 08:53:36;;;;;;;;;;;;;;;;;;5055192;28;4828;-63
2022/12/20 08:56:05;;;;;;;;;;;;;;;;;;5059685;28;5107;-64
2022/12/20 08:58:30;;;;;;;;;;;;;;;;;;5064684;28;4692;-64
2022/12/20 09:00:57;;;;;;;;;;;;;;;;;;5069781;28;4528;-63
2022/12/20 09:03:22;;;;;;;;;;;;;;;;;;5051749;28;5147;-61
2022/12/20 09:05:48;;;;;;;;;;;;;;;;;;5064762;28;3292;-62
2022/12/20 09:08:13;;;;;;;;;;;;;;;;;;5051713;28;5100;-60
2022/12/20 09:10:39;;;;;;;;;;;;;;;;;;5066240;28;4868;-61
2022/12/20 09:13:04;;;;;;;;;;;;;;;;;;5048854;28;4534;-61
2022/12/20 09:15:30;;;;;;;;;;;;;;;;;;5049437;28;4745;-62
2022/12/20 09:17:55;;;;;;;;;;;;;;;;;;5075498;28;2057;-62
2022/12/20 09:20:21;;;;;;;;;;;;;;;;;;5074562;28;5172;-61
2022/12/20 09:22:46;;;;;;;;;;;;;;;;;;5073820;28;5681;-68
2022/12/20 09:25:11;;;;;;;;;;;;;;;;;;5060503;28;5186;-63
2022/12/20 09:27:36;;;;;;;;;;;;;;;;;;5063044;28;5067;-63
2022/12/20 09:30:02;;;;;;;;;;;;;;;;;;5077129;28;1313;-64
2022/12/20 09:32:27;;;;;;;;;;;;;;;;;;5071578;28;6137;-62
2022/12/20 09:34:53;;;;;;;;;;;;;;;;;;5068183;28;4451;-63
2022/12/20 09:37:18;;;;;;;;;;;;;;;;;;5072205;28;4934;-63
2022/12/20 09:39:43;;;;;;;;;;;;;;;;;;5064689;28;4869;-63
2022/12/20 09:42:08;;;;;;;;;;;;;;;;;;5066169;28;3282;-64
2022/12/20 09:44:35;;;;;;;;;;;;;;;;;;5058425;28;5050;-63
2022/12/20 09:47:01;;;;;;;;;;;;;;;;;;5041729;28;4520;-63
2022/12/20 09:49:27;;;;;;;;;;;;;;;;;;5046729;28;5259;-64
2022/12/20 09:52:22;;;;;;;;;;;;;;;;;;5062070;28;5076;-65
2022/12/20 09:55:06;;;;;;;;;;;;;;;;;;5045719;28;5211;-63
2022/12/20 09:57:49;;;;;;;;;;;;;;;;;;5061018;28;4520;-65
2022/12/20 10:00:15;;;;;;;;;;;;;;;;;;5064014;28;4479;-62
2022/12/20 10:02:41;;;;;;;;;;;;;;;;;;5056025;28;4477;-64
2022/12/20 10:05:16;;;;;;;;;;;;;;;;;;5066022;28;5239;-64
2022/12/20 10:07:44;;;;;;;;;;;;;;;;;;5043603;28;5053;-66
2022/12/20 10:10:09;;;;;;;;;;;;;;;;;;5058545;28;4493;-65
2022/12/20 10:12:44;;;;;;;;;;;;;;;;;;5050096;28;4696;-70
2022/12/20 10:15:23;;;;;;;;;;;;;;;;;;5046133;28;3515;-63
2022/12/20 10:17:54;;;;;;;;;;;;;;;;;;5046306;28;4796;-60
2022/12/20 10:20:55;;;;;;;;;;;;;;;;;;5037544;28;4487;-64
2022/12/20 10:23:29;;;;;;;;;;;;;;;;;;4954866;28;5136;-67
2022/12/20 10:25:55;;;;;;;;;;;;;;;;;;5050373;28;5038;-67
2022/12/20 10:28:28;;;;;;;;;;;;;;;;;;5061079;28;5092;-68
2022/12/20 10:30:53;;;;;;;;;;;;;;;;;;5057969;28;5189;-65
2022/12/20 10:33:20;;;;;;;;;;;;;;;;;;5071066;28;5209;-65
2022/12/20 10:35:45;;;;;;;;;;;;;;;;;;5054667;28;3104;-68
2022/12/20 10:38:11;;;;;;;;;;;;;;;;;;5063670;28;5043;-70
2022/12/20 10:40:44;;;;;;;;;;;;;;;;;;5065261;28;4890;-68
2022/12/20 10:43:19;;;;;;;;;;;;;;;;;;5055721;28;5060;-68
2022/12/20 10:46:04;;;;;;;;;;;;;;;;;;5046015;28;5059;-67
2022/12/20 10:48:33;;;;;;;;;;;;;;;;;;5053343;28;5042;-67
2022/12/20 10:50:59;;;;;;;;;;;;;;;;;;5052735;28;3685;-65
2022/12/20 10:53:27;;;;;;;;;;;;;;;;;;5072518;28;5019;-66
2022/12/20 10:55:52;;;;;;;;;;;;;;;;;;5064999;28;6106;-66
2022/12/20 10:58:20;;;;;;;;;;;;;;;;;;5068621;28;4484;-67
2022/12/20 11:00:46;;;;;;;;;;;;;;;;;;5067731;28;5047;-67
2022/12/20 11:03:13;;;;;;;;;;;;;;;;;;5059533;28;4488;-70
2022/12/20 11:05:38;;;;;;;;;;;;;;;;;;5070396;28;4897;-66
2022/12/20 11:08:11;;;;;;;;;;;;;;;;;;5052331;28;5052;-68
2022/12/20 11:10:36;;;;;;;;;;;;;;;;;;5073457;28;4543;-68
2022/12/20 11:13:02;;;;;;;;;;;;;;;;;;5064407;28;4908;-65
2022/12/20 11:15:27;;;;;;;;;;;;;;;;;;5067504;28;4894;-65
2022/12/20 11:18:05;;;;;;;;;;;;;;;;;;5040548;28;3891;-69
2022/12/20 11:20:50;;;;;;;;;;;;;;;;;;5039103;28;5100;-66
2022/12/20 11:23:34;;;;;;;;;;;;;;;;;;5061328;28;4612;-64
2022/12/20 11:26:12;;;;;;;;;;;;;;;;;;5063074;28;5211;-62
2022/12/20 11:28:37;;;;;;;;;;;;;;;;;;5070306;28;4967;-61
2022/12/20 11:31:02;;;;;;;;;;;;;;;;;;5068882;28;5005;-61
2022/12/20 11:33:28;;;;;;;;;;;;;;;;;;5051225;28;5299;-67
2022/12/20 11:35:59;;;;;;;;;;;;;;;;;;5050151;28;3707;-68
2022/12/20 11:38:45;;;;;;;;;;;;;;;;;;5069905;28;4935;-65
2022/12/20 11:41:25;;;;;;;;;;;;;;;;;;5051600;28;4449;-66
2022/12/20 11:43:53;;;;;;;;;;;;;;;;;;5066924;28;5114;-66
2022/12/20 11:46:19;;;;;;;;;;;;;;;;;;5078240;28;5058;-68
2022/12/20 11:48:51;;;;;;;;;;;;;;;;;;5072040;28;4479;-66
2022/12/20 11:51:17;;;;;;;;;;;;;;;;;;5047702;28;5009;-67
2022/12/20 11:53:43;;;;;;;;;;;;;;;;;;5071062;28;3766;-67
2022/12/20 11:56:14;;;;;;;;;;;;;;;;;;5063524;28;4986;-67
2022/12/20 11:58:42;;;;;;;;;;;;;;;;;;5065338;28;5074;-68
2022/12/20 12:01:09;;;;;;;;;;;;;;;;;;5064820;28;4446;-68
2022/12/20 12:03:38;;;;;;;;;;;;;;;;;;5063990;28;4598;-67
2022/12/20 12:06:04;;;;;;;;;;;;;;;;;;5041461;28;3723;-67
2022/12/20 12:08:32;;;;;;;;;;;;;;;;;;5066796;28;4610;-65
2022/12/20 12:11:06;;;;;;;;;;;;;;;;;;5064196;28;4482;-70
2022/12/20 12:13:32;;;;;;;;;;;;;;;;;;5066295;28;4969;-67
2022/12/20 12:16:03;;;;;;;;;;;;;;;;;;5066421;28;4832;-63
2022/12/20 12:18:32;;;;;;;;;;;;;;;;;;5061060;28;5124;-60
2022/12/20 12:21:01;;;;;;;;;;;;;;;;;;5046351;28;3723;-59
2022/12/20 12:23:33;;;;;;;;;;;;;;;;;;5053140;28;4975;-61
2022/12/20 12:25:59;;;;;;;;;;;;;;;;;;5050198;28;5064;-60
2022/12/20 12:28:24;;;;;;;;;;;;;;;;;;5061912;28;5010;-60
2022/12/20 12:30:54;;;;;;;;;;;;;;;;;;5058096;28;4516;-60
2022/12/20 12:33:21;;;;;;;;;;;;;;;;;;5053922;28;5047;-61
2022/12/20 12:35:53;;;;;;;;;;;;;;;;;;5058287;28;3737;-60
2022/12/20 12:38:24;;;;;;;;;;;;;;;;;;5058189;28;5007;-59
2022/12/20 12:40:52;;;;;;;;;;;;;;;;;;5065145;28;5041;-60
2022/12/20 12:43:33;;;;;;;;;;;;;;;;;;5061271;28;5251;-59
2022/12/20 12:45:59;;;;;;;;;;;;;;;;;;5060153;28;5001;-59
2022/12/20 12:48:30;;;;;;;;;;;;;;;;;;5058608;28;4554;-59
2022/12/20 12:50:56;;;;;;;;;;;;;;;;;;5054895;28;3636;-59
2022/12/20 12:53:22;;;;;;;;;;;;;;;;;;5064226;28;4422;-61
2022/12/20 12:55:49;;;;;;;;;;;;;;;;;;5045667;28;5289;-60
2022/12/20 12:58:23;;;;;;;;;;;;;;;;;;5064043;28;5072;-62
2022/12/20 13:00:49;;;;;;;;;;;;;;;;;;5058476;28;5105;-61
2022/12/20 13:03:15;;;;;;;;;;;;;;;;;;5065090;28;4499;-65
2022/12/20 13:05:40;;;;;;;;;;;;;;;;;;5059377;28;3315;-64
2022/12/20 13:08:13;;;;;;;;;;;;;;;;;;5064144;28;5020;-65
2022/12/20 13:10:39;;;;;;;;;;;;;;;;;;5060260;28;4868;-61
2022/12/20 13:13:11;;;;;;;;;;;;;;;;;;5058378;28;5064;-63
2022/12/20 13:15:39;;;;;;;;;;;;;;;;;;5058856;28;5349;-62
2022/12/20 13:18:07;;;;;;;;;;;;;;;;;;5063470;28;3265;-63
2022/12/20 13:20:33;;;;;;;;;;;;;;;;;;5058539;28;4598;-62
2022/12/20 13:23:21;;;;;;;;;;;;;;;;;;5062135;28;6036;-62
2022/12/20 13:25:47;;;;;;;;;;;;;;;;;;5061522;28;5260;-63
2022/12/20 13:28:15;;;;;;;;;;;;;;;;;;5060625;28;5153;-64
2022/12/20 13:30:44;;;;;;;;;;;;;;;;;;5052220;28;4516;-63
2022/12/20 13:33:16;;;;;;;;;;;;;;;;;;5060153;28;3313;-60
2022/12/20 13:35:54;;;;;;;;;;;;;;;;;;5061289;28;4785;-64
2022/12/20 13:38:38;;;;;;;;;;;;;;;;;;5061289;28;4836;-60
2022/12/20 13:41:26;;;;;;;;;;;;;;;;;;5058563;28;4584;-63
2022/12/20 13:43:52;;;;;;;;;;;;;;;;;;5043546;28;4984;-63
2022/12/20 13:46:23;;;;;;;;;;;;;;;;;;5044278;28;5051;-62
2022/12/20 13:48:51;;;;;;;;;;;;;;;;;;5059889;28;4643;-63
2022/12/20 13:51:21;;;;;;;;;;;;;;;;;;5056855;28;5054;-63
2022/12/20 13:53:50;;;;;;;;;;;;;;;;;;5065715;28;3199;-63
2022/12/20 13:56:37;;;;;;;;;;;;;;;;;;5053734;28;4688;-63
2022/12/20 13:59:20;;;;;;;;;;;;;;;;;;5046930;28;4627;-63
2022/12/20 14:01:50;;;;;;;;;;;;;;;;;;5050557;28;5010;-61
2022/12/20 14:04:16;;;;;;;;;;;;;;;;;;5046529;28;5307;-63
2022/12/20 14:06:41;;;;;;;;;;;;;;;;;;5049142;28;4509;-63
2022/12/20 14:09:25;;;;;;;;;;;;;;;;;;5051326;28;3507;-63
2022/12/20 14:11:50;;;;;;;;;;;;;;;;;;5051767;28;4516;-66
2022/12/20 14:14:16;;;;;;;;;;;;;;;;;;5054859;28;4827;-70
2022/12/20 14:16:41;;;;;;;;;;;;;;;;;;5055405;28;4668;-72
2022/12/20 14:19:12;;;;;;;;;;;;;;;;;;5057575;28;5127;-65
2022/12/20 14:21:38;;;;;;;;;;;;;;;;;;5057355;28;4618;-69
2022/12/20 14:24:04;;;;;;;;;;;;;;;;;;5062086;28;3559;-69
2022/12/20 14:26:31;;;;;;;;;;;;;;;;;;5062702;28;4986;-68
2022/12/20 14:28:57;;;;;;;;;;;;;;;;;;5061063;28;4474;-69
2022/12/20 14:31:33;;;;;;;;;;;;;;;;;;5062216;28;5100;-65
2022/12/20 14:34:02;;;;;;;;;;;;;;;;;;5060327;28;5170;-64
2022/12/20 14:36:29;;;;;;;;;;;;;;;;;;5064901;28;4460;-66
2022/12/20 14:38:54;;;;;;;;;;;;;;;;;;5063564;28;1914;-67
2022/12/20 14:41:30;;;;;;;;;;;;;;;;;;5059184;28;5158;-62
2022/12/20 14:43:56;;;;;;;;;;;;;;;;;;5055238;28;4740;-65
2022/12/20 14:46:22;;;;;;;;;;;;;;;;;;5063246;28;5882;-66
2022/12/20 14:48:47;;;;;;;;;;;;;;;;;;5058262;28;4995;-65
2022/12/20 14:51:13;;;;;;;;;;;;;;;;;;5054686;28;3579;-63
2022/12/20 14:53:38;;;;;;;;;;;;;;;;;;5037771;28;5001;-61
2022/12/20 14:56:04;;;;;;;;;;;;;;;;;;5046430;28;5043;-66
2022/12/20 14:58:30;;;;;;;;;;;;;;;;;;5057012;28;4601;-62
2022/12/20 15:01:02;;;;;;;;;;;;;;;;;;5057270;28;5398;-65
2022/12/20 15:03:28;;;;;;;;;;;;;;;;;;5050980;28;5588;-61
2022/12/20 15:05:59;;;;;;;;;;;;;;;;;;5037697;28;3586;-68
2022/12/20 15:08:28;;;;;;;;;;;;;;;;;;5061615;28;5164;-65
2022/12/20 15:10:59;;;;;;;;;;;;;;;;;;5060194;28;4561;-64
2022/12/20 15:13:35;;;;;;;;;;;;;;;;;;5058907;28;5105;-61
2022/12/20 15:16:04;;;;;;;;;;;;;;;;;;5061638;28;4476;-65
2022/12/20 15:18:29;;;;;;;;;;;;;;;;;;5056641;28;4532;-65
2022/12/20 15:20:57;;;;;;;;;;;;;;;;;;5067586;28;3504;-63
2022/12/20 15:23:23;;;;;;;;;;;;;;;;;;5066299;28;5061;-61
2022/12/20 15:25:48;;;;;;;;;;;;;;;;;;5057939;28;5070;-64
2022/12/20 15:28:23;;;;;;;;;;;;;;;;;;5061789;28;5121;-65
2022/12/20 15:30:49;;;;;;;;;;;;;;;;;;5058653;28;5064;-63
2022/12/20 15:33:22;;;;;;;;;;;;;;;;;;5062713;28;5609;-61
2022/12/20 15:35:47;;;;;;;;;;;;;;;;;;5049484;28;3601;-67
2022/12/20 15:38:15;;;;;;;;;;;;;;;;;;5052961;28;5329;-64
2022/12/20 15:40:40;;;;;;;;;;;;;;;;;;5055214;28;5246;-63
2022/12/20 15:43:07;;;;;;;;;;;;;;;;;;5057057;28;5072;-64
2022/12/20 15:45:32;;;;;;;;;;;;;;;;;;5047936;28;4890;-64
2022/12/20 15:47:58;;;;;;;;;;;;;;;;;;5055354;28;3602;-63
2022/12/20 15:50:23;;;;;;;;;;;;;;;;;;5060083;28;4720;-59
2022/12/20 15:52:48;;;;;;;;;;;;;;;;;;5053111;28;4985;-60
2022/12/20 15:55:14;;;;;;;;;;;;;;;;;;5056446;28;5301;-59
2022/12/20 15:57:39;;;;;;;;;;;;;;;;;;5053737;28;4497;-70
2022/12/20 16:00:05;;;;;;;;;;;;;;;;;;5047603;28;3655;-66
2022/12/20 16:02:31;;;;;;;;;;;;;;;;;;5053922;28;5038;-62
2022/12/20 16:04:57;;;;;;;;;;;;;;;;;;5062307;28;4850;-66
2022/12/20 16:07:22;;;;;;;;;;;;;;;;;;5069760;28;5026;-66
2022/12/20 16:09:48;;;;;;;;;;;;;;;;;;5069561;28;4858;-67
2022/12/20 16:12:14;;;;;;;;;;;;;;;;;;5070317;28;4640;-64
2022/12/20 16:14:41;;;;;;;;;;;;;;;;;;5069318;28;1120;-67
2022/12/20 16:17:08;;;;;;;;;;;;;;;;;;5070052;28;4991;-66
2022/12/20 16:19:33;;;;;;;;;;;;;;;;;;5066839;28;4961;-68
2022/12/20 16:21:58;;;;;;;;;;;;;;;;;;5068637;28;5352;-65
2022/12/20 16:24:24;;;;;;;;;;;;;;;;;;5055271;28;5008;-62
2022/12/20 16:26:50;;;;;;;;;;;;;;;;;;5059139;28;3604;-65
2022/12/20 16:29:15;;;;;;;;;;;;;;;;;;5069941;28;4998;-67
2022/12/20 16:31:41;;;;;;;;;;;;;;;;;;5068996;28;4972;-65
2022/12/20 16:34:09;;;;;;;;;;;;;;;;;;5055350;28;5082;-65
2022/12/20 16:36:34;;;;;;;;;;;;;;;;;;5067443;28;4979;-68
2022/12/20 16:38:59;;;;;;;;;;;;;;;;;;5069218;28;1909;-69
2022/12/20 16:41:26;;;;;;;;;;;;;;;;;;5069602;28;4532;-66
2022/12/20 16:43:51;;;;;;;;;;;;;;;;;;5069367;28;4445;-66
2022/12/20 16:46:18;;;;;;;;;;;;;;;;;;5068629;28;4853;-67
2022/12/20 16:48:43;;;;;;;;;;;;;;;;;;5067772;28;4988;-68
2022/12/20 16:51:23;;;;;;;;;;;;;;;;;;5065536;28;1253;-69
2022/12/20 16:53:48;;;;;;;;;;;;;;;;;;5066493;28;5143;-68
2022/12/20 16:56:13;;;;;;;;;;;;;;;;;;5065954;28;5013;-69
2022/12/20 16:58:39;;;;;;;;;;;;;;;;;;5069243;28;5048;-64
2022/12/20 17:01:04;;;;;;;;;;;;;;;;;;5066867;28;4865;-66
2022/12/20 17:03:29;;;;;;;;;;;;;;;;;;5065809;28;5043;-66
2022/12/20 17:05:56;;;;;;;;;;;;;;;;;;5057855;28;3520;-67
2022/12/20 17:08:21;;;;;;;;;;;;;;;;;;5068920;28;5217;-68
2022/12/20 17:10:46;;;;;;;;;;;;;;;;;;5069076;28;4934;-66
2022/12/20 17:13:12;;;;;;;;;;;;;;;;;;5069174;28;4991;-65
2022/12/20 17:15:39;;;;;;;;;;;;;;;;;;5068442;28;5067;-66